createdAt,value
2019-06-27T00:00:52.740Z,11.25
2019-06-27T00:03:20.414Z,11.10
2019-06-27T00:05:48.037Z,8.53
2019-06-27T00:08:15.662Z,11.10
2019-06-27T00:10:44.729Z,9.70
2019-06-27T00:13:12.382Z,10.00
2019-06-27T00:15:40.006Z,9.10
2019-06-27T00:18:07.636Z,9.63
2019-06-27T00:20:35.273Z,7.50
2019-06-27T00:23:04.082Z,9.33
2019-06-27T00:25:31.645Z,10.47
2019-06-27T00:28:00.345Z,11.20
2019-06-27T00:30:27.990Z,10.15
2019-06-27T00:32:55.692Z,10.53
2019-06-27T00:35:23.325Z,12.45
2019-06-27T00:37:50.937Z,10.90
2019-06-27T00:40:18.591Z,10.83
2019-06-27T00:42:48.454Z,11.77
2019-06-27T00:45:16.167Z,10.08
2019-06-27T00:47:43.881Z,10.83
2019-06-27T00:50:11.498Z,8.93
2019-06-27T00:52:39.218Z,10.87
2019-06-27T00:55:07.151Z,10.20
2019-06-27T00:57:35.054Z,15.73
2019-06-27T01:00:03.283Z,9.37
2019-06-27T01:02:30.903Z,9.90
2019-06-27T01:04:58.593Z,12.27
2019-06-27T01:07:26.237Z,9.27
2019-06-27T01:09:53.884Z,10.50
2019-06-27T01:12:21.487Z,11.97
2019-06-27T01:14:49.146Z,12.10
2019-06-27T01:17:16.760Z,10.30
2019-06-27T01:19:44.408Z,10.20
2019-06-27T01:22:12.006Z,11.30
2019-06-27T01:24:39.650Z,13.90
2019-06-27T01:27:07.290Z,10.57
2019-06-27T01:29:34.860Z,12.47
2019-06-27T01:32:02.500Z,14.53
2019-06-27T01:34:30.290Z,10.47
2019-06-27T01:36:57.939Z,13.70
2019-06-27T01:39:25.546Z,10.50
2019-06-27T01:41:53.279Z,11.63
2019-06-27T01:44:39.268Z,15.13
2019-06-27T01:47:08.953Z,10.63
2019-06-27T01:49:36.550Z,13.40
2019-06-27T01:52:04.324Z,10.50
2019-06-27T01:54:32.134Z,13.77
2019-06-27T01:56:59.787Z,12.63
2019-06-27T01:59:27.395Z,13.87
2019-06-27T02:01:55.048Z,11.10
2019-06-27T02:04:22.679Z,12.30
2019-06-27T02:06:50.315Z,14.23
2019-06-27T02:09:17.923Z,11.60
2019-06-27T02:11:45.559Z,11.47
2019-06-27T02:14:13.782Z,12.63
2019-06-27T02:16:41.422Z,15.97
2019-06-27T02:19:09.060Z,13.40
2019-06-27T02:21:36.736Z,16.03
2019-06-27T02:24:04.306Z,19.50
2019-06-27T02:26:31.951Z,21.57
2019-06-27T02:28:59.741Z,20.27
2019-06-27T02:31:27.376Z,24.43
2019-06-27T02:33:54.995Z,24.90
2019-06-27T02:36:22.647Z,25.97
2019-06-27T02:38:50.258Z,27.70
2019-06-27T02:41:17.877Z,31.60
2019-06-27T02:43:45.552Z,31.50
2019-06-27T02:46:13.152Z,31.20
2019-06-27T02:48:40.772Z,31.57
2019-06-27T02:51:10.396Z,30.87
2019-06-27T02:53:38.158Z,21.70
2019-06-27T02:56:05.760Z,23.40
2019-06-27T02:58:33.389Z,20.10
2019-06-27T03:01:00.994Z,24.70
2019-06-27T03:03:28.686Z,23.60
2019-06-27T03:05:56.499Z,23.97
2019-06-27T03:08:24.129Z,23.97
2019-06-27T03:10:51.763Z,22.00
2019-06-27T03:13:19.389Z,23.33
2019-06-27T03:15:47.007Z,18.43
2019-06-27T03:18:14.665Z,23.27
2019-06-27T03:20:42.565Z,19.80
2019-06-27T03:23:10.210Z,18.87
2019-06-27T03:25:37.841Z,16.87
2019-06-27T03:28:05.479Z,20.73
2019-06-27T03:30:33.114Z,20.23
2019-06-27T03:33:02.734Z,18.17
2019-06-27T03:35:30.380Z,21.12
2019-06-27T03:37:58.008Z,19.80
2019-06-27T03:40:25.616Z,18.40
2019-06-27T03:42:53.268Z,16.83
2019-06-27T03:45:20.993Z,12.73
2019-06-27T03:47:48.619Z,16.17
2019-06-27T03:50:16.232Z,15.07
2019-06-27T03:52:43.858Z,12.63
2019-06-27T03:55:13.181Z,15.03
2019-06-27T03:57:44.590Z,13.07
2019-06-27T04:00:10.243Z,12.70
2019-06-27T04:02:37.906Z,11.80
2019-06-27T04:05:05.617Z,14.73
2019-06-27T04:07:35.127Z,14.43
2019-06-27T04:10:02.861Z,16.00
2019-06-27T04:12:30.472Z,14.83
2019-06-27T04:14:58.107Z,18.00
2019-06-27T04:17:25.706Z,20.37
2019-06-27T04:19:53.350Z,19.53
2019-06-27T04:22:20.964Z,18.52
2019-06-27T04:24:49.788Z,17.12
2019-06-27T04:27:17.357Z,18.53
2019-06-27T04:29:45.014Z,15.80
2019-06-27T04:32:12.629Z,17.70
2019-06-27T04:34:40.270Z,14.43
2019-06-27T04:37:07.890Z,14.63
2019-06-27T04:39:35.537Z,15.50
2019-06-27T04:42:03.153Z,14.40
2019-06-27T04:44:30.780Z,14.60
2019-06-27T04:46:58.420Z,13.43
2019-06-27T04:49:26.150Z,15.50
2019-06-27T04:51:53.779Z,18.82
2019-06-27T04:54:21.442Z,18.33
2019-06-27T04:56:49.081Z,12.93
2019-06-27T04:59:18.478Z,15.50
2019-06-27T05:01:46.090Z,22.00
2019-06-27T05:04:13.730Z,23.27
2019-06-27T05:06:41.312Z,22.45
2019-06-27T05:09:08.968Z,19.85
2019-06-27T05:11:36.575Z,21.97
2019-06-27T05:14:04.237Z,18.10
2019-06-27T05:16:31.906Z,18.00
2019-06-27T05:19:00.692Z,19.90
2019-06-27T05:21:28.279Z,19.75
2019-06-27T05:23:55.908Z,19.43
2019-06-27T05:26:23.598Z,18.90
2019-06-27T05:28:51.235Z,24.17
2019-06-27T05:31:18.873Z,25.57
2019-06-27T05:33:46.520Z,22.17
2019-06-27T05:36:14.135Z,19.70
2019-06-27T05:38:42.852Z,20.17
2019-06-27T05:41:10.528Z,24.97
2019-06-27T05:43:38.145Z,22.93
2019-06-27T05:46:05.787Z,21.30
2019-06-27T05:48:33.424Z,20.43
2019-06-27T05:51:01.084Z,22.62
2019-06-27T05:53:28.690Z,21.17
2019-06-27T05:55:56.342Z,18.75
2019-06-27T05:58:23.966Z,23.77
2019-06-27T06:00:51.688Z,22.20
2019-06-27T06:03:21.884Z,17.77
2019-06-27T06:05:49.520Z,19.77
2019-06-27T06:08:17.168Z,22.95
2019-06-27T06:10:44.788Z,19.95
2019-06-27T06:13:12.432Z,20.15
2019-06-27T06:15:40.103Z,20.00
2019-06-27T06:18:07.733Z,22.90
2019-06-27T06:20:35.377Z,24.75
2019-06-27T06:23:02.983Z,22.30
2019-06-27T06:25:30.649Z,25.57
2019-06-27T06:27:58.252Z,25.97
2019-06-27T06:30:25.902Z,25.70
2019-06-27T06:32:53.517Z,23.27
2019-06-27T06:35:21.165Z,19.27
2019-06-27T06:37:48.860Z,19.20
2019-06-27T06:40:16.808Z,15.10
2019-06-27T06:42:44.440Z,17.67
2019-06-27T06:45:12.120Z,17.53
2019-06-27T06:47:39.762Z,16.95
2019-06-27T06:50:07.751Z,18.10
2019-06-27T06:52:35.341Z,18.10
2019-06-27T06:55:02.952Z,17.62
2019-06-27T06:57:30.652Z,13.80
2019-06-27T06:59:58.383Z,17.30
2019-06-27T07:02:26.876Z,14.83
2019-06-27T07:04:54.480Z,15.53
2019-06-27T07:07:22.134Z,12.80
2019-06-27T07:09:49.754Z,13.90
2019-06-27T07:12:17.413Z,17.62
2019-06-27T07:14:45.251Z,14.50
2019-06-27T07:17:13.319Z,12.67
2019-06-27T07:19:41.360Z,15.30
2019-06-27T07:22:09.646Z,15.20
2019-06-27T07:24:37.613Z,16.02
2019-06-27T07:27:05.763Z,14.85
2019-06-27T07:29:33.683Z,14.18
2019-06-27T07:32:01.660Z,15.50
2019-06-27T07:34:29.740Z,15.80
2019-06-27T07:36:58.483Z,17.02
2019-06-27T07:39:26.386Z,15.53
2019-06-27T07:41:53.983Z,22.22
2019-06-27T07:44:21.643Z,13.90
2019-06-27T07:46:49.335Z,11.95
2019-06-27T07:49:25.681Z,12.03
2019-06-27T07:51:53.308Z,13.65
2019-06-27T07:54:20.932Z,12.28
2019-06-27T07:56:48.581Z,14.38
2019-06-27T07:59:16.197Z,15.25
2019-06-27T08:01:45.747Z,12.93
2019-06-27T08:04:13.370Z,13.22
2019-06-27T08:06:41.020Z,13.98
2019-06-27T08:09:08.652Z,13.60
2019-06-27T08:11:36.436Z,11.68
2019-06-27T08:14:04.074Z,13.83
2019-06-27T08:16:31.751Z,12.75
2019-06-27T08:18:59.454Z,9.40
2019-06-27T08:21:27.357Z,10.63
2019-06-27T08:23:55.004Z,9.18
2019-06-27T08:26:22.641Z,8.65
2019-06-27T08:28:50.409Z,13.32
2019-06-27T08:31:18.061Z,11.22
2019-06-27T08:33:45.734Z,11.28
2019-06-27T08:36:13.367Z,9.48
2019-06-27T08:38:41.085Z,8.18
2019-06-27T08:41:08.662Z,11.03
2019-06-27T08:43:36.355Z,12.55
2019-06-27T08:46:04.030Z,11.22
2019-06-27T08:48:31.695Z,11.05
2019-06-27T08:50:59.383Z,9.85
2019-06-27T08:53:29.685Z,9.78
2019-06-27T08:55:57.306Z,10.68
2019-06-27T08:58:24.962Z,9.95
2019-06-27T09:00:52.590Z,10.08
2019-06-27T09:03:20.230Z,5.45
2019-06-27T09:05:47.858Z,7.12
2019-06-27T09:08:15.499Z,8.38
2019-06-27T09:10:43.163Z,10.98
2019-06-27T09:13:10.810Z,9.28
2019-06-27T09:15:40.336Z,9.53
2019-06-27T09:18:07.974Z,10.58
2019-06-27T09:20:35.606Z,10.00
2019-06-27T09:23:03.242Z,6.45
2019-06-27T09:25:30.864Z,10.18
2019-06-27T09:27:58.465Z,6.97
2019-06-27T09:30:26.095Z,7.17
2019-06-27T09:32:53.714Z,8.73
2019-06-27T09:35:21.402Z,10.13
2019-06-27T09:37:49.017Z,9.18
2019-06-27T09:40:16.950Z,9.63
2019-06-27T09:42:44.574Z,7.85
2019-06-27T09:45:12.324Z,11.73
2019-06-27T09:47:39.943Z,7.47
2019-06-27T09:50:07.985Z,7.60
2019-06-27T09:52:35.628Z,9.75
2019-06-27T09:55:03.728Z,6.72
2019-06-27T09:57:31.331Z,8.05
2019-06-27T09:59:58.984Z,9.70
2019-06-27T10:02:40.568Z,9.73
2019-06-27T10:04:56.051Z,9.55
2019-06-27T10:07:23.646Z,8.30
2019-06-27T10:09:51.285Z,10.53
2019-06-27T10:12:19.024Z,8.28
2019-06-27T10:14:46.725Z,8.25
2019-06-27T10:17:14.417Z,8.00
2019-06-27T10:19:44.420Z,8.28
2019-06-27T10:22:12.050Z,10.85
2019-06-27T10:24:39.880Z,7.60
2019-06-27T10:27:07.461Z,6.78
2019-06-27T10:29:35.092Z,6.78
2019-06-27T10:32:02.713Z,10.70
2019-06-27T10:34:30.342Z,9.18
2019-06-27T10:36:57.972Z,8.80
2019-06-27T10:39:25.592Z,7.17
2019-06-27T10:41:53.231Z,9.43
2019-06-27T10:44:20.864Z,7.70
2019-06-27T10:46:48.534Z,15.18
2019-06-27T10:49:16.116Z,8.78
2019-06-27T10:51:43.761Z,6.37
2019-06-27T10:54:11.378Z,5.83
2019-06-27T10:56:40.788Z,7.58
2019-06-27T10:59:08.391Z,8.58
2019-06-27T11:01:36.046Z,7.03
2019-06-27T11:04:03.675Z,6.08
2019-06-27T11:06:31.310Z,9.75
2019-06-27T11:09:00.828Z,8.83
2019-06-27T11:11:28.398Z,12.43
2019-06-27T11:13:59.338Z,8.65
2019-06-27T11:16:25.450Z,9.58
2019-06-27T11:18:53.045Z,7.53
2019-06-27T11:21:20.708Z,5.28
2019-06-27T11:23:48.322Z,7.72
2019-06-27T11:26:15.945Z,7.35
2019-06-27T11:28:43.574Z,8.30
2019-06-27T11:31:11.177Z,7.97
2019-06-27T11:33:38.808Z,7.87
2019-06-27T11:36:06.457Z,7.65
2019-06-27T11:38:34.127Z,10.60
2019-06-27T11:41:01.894Z,6.40
2019-06-27T11:43:30.397Z,8.83
2019-06-27T11:45:57.996Z,9.13
2019-06-27T11:48:25.657Z,10.95
2019-06-27T11:50:53.265Z,7.37
2019-06-27T11:53:20.909Z,7.80
2019-06-27T11:55:48.525Z,6.00
2019-06-27T11:58:16.175Z,9.20
2019-06-27T12:00:43.806Z,9.48
2019-06-27T12:03:11.483Z,5.60
2019-06-27T12:05:39.232Z,9.55
2019-06-27T12:08:10.666Z,6.90
2019-06-27T12:10:36.263Z,3.58
2019-06-27T12:13:03.899Z,4.90
2019-06-27T12:15:31.510Z,8.65
2019-06-27T12:17:59.150Z,5.00
2019-06-27T12:20:26.755Z,5.83
2019-06-27T12:22:54.394Z,4.17
2019-06-27T12:25:22.007Z,4.80
2019-06-27T12:27:49.621Z,5.87
2019-06-27T12:30:17.631Z,6.85
2019-06-27T12:32:52.508Z,6.20
2019-06-27T12:35:14.855Z,7.05
2019-06-27T12:37:44.179Z,5.50
2019-06-27T12:40:12.428Z,6.35
2019-06-27T12:42:40.074Z,6.85
2019-06-27T12:45:08.170Z,8.65
2019-06-27T12:47:35.809Z,5.50
2019-06-27T12:50:13.833Z,6.72
2019-06-27T12:52:41.448Z,6.53
2019-06-27T12:55:09.288Z,5.03
2019-06-27T12:57:36.901Z,9.55
2019-06-27T13:00:08.300Z,5.97
2019-06-27T13:02:34.242Z,4.75
2019-06-27T13:05:01.902Z,5.95
2019-06-27T13:07:29.580Z,6.12
2019-06-27T13:09:57.223Z,6.00
2019-06-27T13:12:24.839Z,4.17
2019-06-27T13:14:54.067Z,7.28
2019-06-27T13:17:21.657Z,5.10
2019-06-27T13:19:49.275Z,6.42
2019-06-27T13:22:16.954Z,7.70
2019-06-27T13:24:44.603Z,4.20
2019-06-27T13:27:13.176Z,5.55
2019-06-27T13:29:40.913Z,8.93
2019-06-27T13:32:11.514Z,5.75
2019-06-27T13:34:41.252Z,5.90
2019-06-27T13:37:09.003Z,5.10
2019-06-27T13:39:36.777Z,4.92
2019-06-27T13:42:04.375Z,6.22
2019-06-27T13:44:31.961Z,5.45
2019-06-27T13:46:59.610Z,4.45
2019-06-27T13:49:27.445Z,5.08
2019-06-27T13:51:55.322Z,6.58
2019-06-27T13:54:27.059Z,10.25
2019-06-27T13:56:54.768Z,5.67
2019-06-27T13:59:22.397Z,7.80
2019-06-27T14:01:50.025Z,5.10
2019-06-27T14:04:17.672Z,4.40
2019-06-27T14:06:45.411Z,5.70
2019-06-27T14:09:23.068Z,5.40
2019-06-27T14:11:43.837Z,4.75
2019-06-27T14:14:11.678Z,5.20
2019-06-27T14:16:39.455Z,7.25
2019-06-27T14:19:07.891Z,3.90
2019-06-27T14:21:35.629Z,8.23
2019-06-27T14:24:03.461Z,4.70
2019-06-27T14:26:31.476Z,3.80
2019-06-27T14:28:59.157Z,9.35
2019-06-27T14:31:26.755Z,4.55
2019-06-27T14:33:54.371Z,5.42
2019-06-27T14:36:22.084Z,3.37
2019-06-27T14:38:49.685Z,4.42
2019-06-27T14:41:19.994Z,5.25
2019-06-27T14:43:47.487Z,5.70
2019-06-27T14:46:16.289Z,5.53
2019-06-27T14:48:44.029Z,4.30
2019-06-27T14:51:12.926Z,7.15
2019-06-27T14:53:40.697Z,4.55
2019-06-27T14:56:08.956Z,6.42
2019-06-27T14:58:38.513Z,4.58
2019-06-27T15:01:09.849Z,6.12
2019-06-27T15:03:36.898Z,4.25
2019-06-27T15:06:04.516Z,5.03
2019-06-27T15:08:32.161Z,3.62
2019-06-27T15:10:59.776Z,4.47
2019-06-27T15:13:27.508Z,4.62
2019-06-27T15:16:10.679Z,3.90
2019-06-27T15:18:24.593Z,6.47
2019-06-27T15:20:52.203Z,6.15
2019-06-27T15:23:19.853Z,3.50
2019-06-27T15:25:47.552Z,4.28
2019-06-27T15:28:15.230Z,4.37
2019-06-27T15:30:42.827Z,3.22
2019-06-27T15:33:10.486Z,3.12
2019-06-27T15:35:51.932Z,4.35
2019-06-27T15:38:07.542Z,3.90
2019-06-27T15:40:35.156Z,2.90
2019-06-27T15:43:02.819Z,6.33
2019-06-27T15:45:30.545Z,3.58
2019-06-27T15:47:58.212Z,4.25
2019-06-27T15:50:25.839Z,3.70
2019-06-27T15:52:53.451Z,4.17
2019-06-27T15:55:21.566Z,4.83
2019-06-27T15:57:49.283Z,6.15
2019-06-27T16:00:17.025Z,4.20
2019-06-27T16:02:44.709Z,5.05
2019-06-27T16:05:12.514Z,4.78
2019-06-27T16:07:40.121Z,3.27
2019-06-27T16:10:08.059Z,4.55
2019-06-27T16:12:35.837Z,6.03
2019-06-27T16:15:03.903Z,4.08
2019-06-27T16:17:31.541Z,6.80
2019-06-27T16:19:59.217Z,4.15
2019-06-27T16:22:26.785Z,5.65
2019-06-27T16:24:55.715Z,4.15
2019-06-27T16:27:23.563Z,5.78
2019-06-27T16:29:51.187Z,4.25
2019-06-27T16:32:18.801Z,6.87
2019-06-27T16:34:57.551Z,5.28
2019-06-27T16:37:25.142Z,7.55
2019-06-27T16:39:52.806Z,6.47
2019-06-27T16:42:20.453Z,4.75
2019-06-27T16:44:48.232Z,4.75
2019-06-27T16:47:15.848Z,4.92
2019-06-27T16:49:43.503Z,3.60
2019-06-27T16:52:11.128Z,4.45
2019-06-27T16:54:38.886Z,8.03
2019-06-27T16:57:06.531Z,8.13
2019-06-27T16:59:34.184Z,3.75
2019-06-27T17:02:01.812Z,6.05
2019-06-27T17:04:29.415Z,6.60
2019-06-27T17:06:57.046Z,4.08
2019-06-27T17:09:24.654Z,5.12
2019-06-27T17:11:52.302Z,3.77
2019-06-27T17:14:19.948Z,3.92
2019-06-27T17:16:47.595Z,3.67
2019-06-27T17:19:15.212Z,3.85
2019-06-27T17:21:42.851Z,4.55
2019-06-27T17:24:10.459Z,5.53
2019-06-27T17:26:38.089Z,5.90
2019-06-27T17:29:06.273Z,6.85
2019-06-27T17:31:33.917Z,3.83
2019-06-27T17:34:01.559Z,4.17
2019-06-27T17:36:29.227Z,7.20
2019-06-27T17:38:56.845Z,5.92
2019-06-27T17:41:24.474Z,6.12
2019-06-27T17:43:52.108Z,4.97
2019-06-27T17:46:19.760Z,6.70
2019-06-27T17:48:47.385Z,6.83
2019-06-27T17:51:15.051Z,6.03
2019-06-27T17:53:42.661Z,6.72
2019-06-27T17:56:10.305Z,8.75
2019-06-27T17:58:37.936Z,4.65
2019-06-27T18:01:05.585Z,5.22
2019-06-27T18:03:33.253Z,9.25
2019-06-27T18:06:02.018Z,4.12
2019-06-27T18:08:29.816Z,7.87
2019-06-27T18:10:58.363Z,4.30
2019-06-27T18:13:26.089Z,3.58
2019-06-27T18:15:53.887Z,6.12
2019-06-27T18:18:21.819Z,4.47
2019-06-27T18:20:49.457Z,3.98
2019-06-27T18:23:17.113Z,3.70
2019-06-27T18:25:45.367Z,5.55
2019-06-27T18:28:13.013Z,3.65
2019-06-27T18:30:40.634Z,7.20
2019-06-27T18:33:08.253Z,4.20
2019-06-27T18:35:35.854Z,6.75
2019-06-27T18:38:03.480Z,3.98
2019-06-27T18:40:31.069Z,4.35
2019-06-27T18:42:58.720Z,5.10
2019-06-27T18:45:26.336Z,5.33
2019-06-27T18:47:53.977Z,7.28
2019-06-27T18:50:21.615Z,5.95
2019-06-27T18:52:49.267Z,7.65
2019-06-27T18:55:16.885Z,6.22
2019-06-27T18:57:44.570Z,6.35
2019-06-27T19:00:13.215Z,6.10
2019-06-27T19:02:40.860Z,5.78
2019-06-27T19:05:09.578Z,6.40
2019-06-27T19:07:45.304Z,4.72
2019-06-27T19:10:07.296Z,4.95
2019-06-27T19:12:34.942Z,6.95
2019-06-27T19:15:04.505Z,5.62
2019-06-27T19:17:32.158Z,8.73
2019-06-27T19:20:03.944Z,7.35
2019-06-27T19:22:49.592Z,6.45
2019-06-27T19:25:24.895Z,5.92
2019-06-27T19:27:52.551Z,9.95
2019-06-27T19:30:20.206Z,9.05
2019-06-27T19:32:47.862Z,3.40
2019-06-27T19:35:15.473Z,6.67
2019-06-27T19:37:43.135Z,5.25
2019-06-27T19:40:11.150Z,5.50
2019-06-27T19:42:38.790Z,5.10
2019-06-27T19:45:06.700Z,5.30
2019-06-27T19:47:34.328Z,6.33
2019-06-27T19:50:01.978Z,4.45
2019-06-27T19:52:29.605Z,3.52
2019-06-27T19:54:57.241Z,5.70
2019-06-27T19:57:24.853Z,5.70
2019-06-27T19:59:56.162Z,3.92
2019-06-27T20:02:23.838Z,4.45
2019-06-27T20:04:51.459Z,3.85
2019-06-27T20:07:19.089Z,4.47
2019-06-27T20:09:46.769Z,4.65
2019-06-27T20:12:14.390Z,5.08
2019-06-27T20:14:42.038Z,4.00
2019-06-27T20:17:09.663Z,4.30
2019-06-27T20:19:38.493Z,6.62
2019-06-27T20:24:27.116Z,5.83
2019-06-27T20:26:54.724Z,4.12
2019-06-27T20:29:23.338Z,4.55
2019-06-27T20:31:50.959Z,5.12
2019-06-27T20:34:18.666Z,5.12
2019-06-27T20:36:46.330Z,3.58
2019-06-27T20:39:14.009Z,3.87
2019-06-27T20:41:41.608Z,7.40
2019-06-27T20:44:09.270Z,3.72
2019-06-27T20:46:36.908Z,3.02
2019-06-27T20:49:04.567Z,4.65
2019-06-27T20:51:32.185Z,5.75
2019-06-27T20:53:59.849Z,3.67
2019-06-27T20:56:30.358Z,2.80
2019-06-27T20:58:58.040Z,3.27
2019-06-27T21:01:25.718Z,2.83
2019-06-27T21:03:55.434Z,4.70
2019-06-27T21:06:23.138Z,4.53
2019-06-27T21:08:51.997Z,5.43
2019-06-27T21:11:19.812Z,5.42
2019-06-27T21:13:47.453Z,7.58
2019-06-27T21:16:15.122Z,7.10
2019-06-27T21:18:42.749Z,6.55
2019-06-27T21:21:10.428Z,8.95
2019-06-27T21:23:38.105Z,6.87
2019-06-27T21:26:05.742Z,7.50
2019-06-27T21:28:33.381Z,10.30
2019-06-27T21:31:02.992Z,7.87
2019-06-27T21:33:30.545Z,9.27
2019-06-27T21:35:58.190Z,7.23
2019-06-27T21:38:25.793Z,9.45
2019-06-27T21:40:53.426Z,8.60
2019-06-27T21:43:21.025Z,9.98
2019-06-27T21:45:51.800Z,9.18
2019-06-27T21:48:19.400Z,9.23
2019-06-27T21:50:47.045Z,10.03
2019-06-27T21:53:14.685Z,7.20
2019-06-27T21:55:42.329Z,8.97
2019-06-27T21:58:09.964Z,7.87
2019-06-27T22:00:38.831Z,6.40
2019-06-27T22:03:06.490Z,12.13
2019-06-27T22:05:34.232Z,10.10
2019-06-27T22:08:01.838Z,8.73
2019-06-27T22:10:29.509Z,9.60
2019-06-27T22:12:57.156Z,9.80
2019-06-27T22:15:24.801Z,7.62
2019-06-27T22:17:52.693Z,9.15
2019-06-27T22:20:20.419Z,6.30
2019-06-27T22:22:48.041Z,7.60
2019-06-27T22:25:15.690Z,10.87
2019-06-27T22:27:43.370Z,7.07
2019-06-27T22:30:14.154Z,10.63
2019-06-27T22:32:41.917Z,8.80
2019-06-27T22:35:09.845Z,10.30
2019-06-27T22:37:37.013Z,11.37
2019-06-27T22:40:22.901Z,8.63
2019-06-27T22:43:08.688Z,6.00
2019-06-27T22:45:54.593Z,10.27
2019-06-27T22:48:21.688Z,9.87
2019-06-27T22:51:18.058Z,8.20
2019-06-27T22:53:55.875Z,8.83
2019-06-27T22:56:23.492Z,8.73
2019-06-27T22:58:51.124Z,9.60
2019-06-27T23:01:18.876Z,10.67
2019-06-27T23:03:46.640Z,12.03
2019-06-27T23:06:14.739Z,11.07
2019-06-27T23:08:42.312Z,6.87
2019-06-27T23:11:09.969Z,7.57
2019-06-27T23:13:37.605Z,9.77
2019-06-27T23:16:05.223Z,10.23
2019-06-27T23:18:32.832Z,11.23
2019-06-27T23:21:02.366Z,8.87
2019-06-27T23:23:29.875Z,11.00
2019-06-27T23:25:57.496Z,9.97
2019-06-27T23:28:25.142Z,9.10
2019-06-27T23:30:52.747Z,7.70
2019-06-27T23:33:20.473Z,11.03
2019-06-27T23:35:49.806Z,11.13
2019-06-27T23:38:17.425Z,12.93
2019-06-27T23:40:45.166Z,10.23
2019-06-27T23:43:12.787Z,9.23
2019-06-27T23:45:40.439Z,9.00
2019-06-27T23:48:08.104Z,10.40
2019-06-27T23:50:35.743Z,9.03
2019-06-27T23:53:03.361Z,9.63
2019-06-27T23:55:31.304Z,12.13
2019-06-27T23:57:59.644Z,9.63
